ADDS METAR Data

Data at: 0510 UTC 20 Apr 2018

METAR for:KCQX (Chatham Muni, MA, US)
Text:KCQX 200452Z AUTO VRB03KT 10SM -RA BKN021 OVC027 05/03 A2981 RMK AO2 SLP097 P0001 T00500033 400670039
Temperature: 5.0°C ( 41°F)
Dewpoint: 3.3°C ( 38°F) [RH = 89%]
Pressure (altimeter):29.81 inches Hg (1009.6 mb) [Sea level pressure: 1009.7 mb]
Winds:variable direction winds at 3 MPH (3 knots; 1.5 m/s)
Visibility:10 or more sm (16+ km)
Ceiling:2100 feet AGL
Clouds: broken clouds at 2100 feet AGL, overcast cloud deck at 2700 feet AGL
Weather:-RA (light rain)
QC Flag:automated observation with no human augmentation